sensor_id;sensor_type;location;lat;lon;timestamp;P1;durP1;ratioP1;P2;durP2;ratioP2
1885;SDS011;943;51.568;6.998;2022-07-17T00:02:09;7.37;;;2.07;;
1885;SDS011;943;51.568;6.998;2022-07-17T00:04:37;4.20;;;1.77;;
1885;SDS011;943;51.568;6.998;2022-07-17T00:07:05;8.20;;;2.00;;
1885;SDS011;943;51.568;6.998;2022-07-17T00:09:33;9.90;;;2.13;;
1885;SDS011;943;51.568;6.998;2022-07-17T00:12:01;5.63;;;1.93;;
1885;SDS011;943;51.568;6.998;2022-07-17T00:14:29;6.13;;;2.17;;
1885;SDS011;943;51.568;6.998;2022-07-17T00:16:57;3.27;;;1.60;;
1885;SDS011;943;51.568;6.998;2022-07-17T00:19:25;3.33;;;1.70;;
1885;SDS011;943;51.568;6.998;2022-07-17T00:21:53;5.63;;;1.80;;
1885;SDS011;943;51.568;6.998;2022-07-17T00:24:20;6.50;;;2.40;;
1885;SDS011;943;51.568;6.998;2022-07-17T00:26:49;3.30;;;1.77;;
1885;SDS011;943;51.568;6.998;2022-07-17T00:29:18;8.60;;;2.10;;
1885;SDS011;943;51.568;6.998;2022-07-17T00:31:46;6.90;;;1.97;;
1885;SDS011;943;51.568;6.998;2022-07-17T00:34:14;6.13;;;1.73;;
1885;SDS011;943;51.568;6.998;2022-07-17T00:36:46;6.77;;;2.77;;
1885;SDS011;943;51.568;6.998;2022-07-17T00:39:14;4.63;;;1.43;;
1885;SDS011;943;51.568;6.998;2022-07-17T00:41:45;7.30;;;1.73;;
1885;SDS011;943;51.568;6.998;2022-07-17T00:44:12;6.60;;;2.10;;
1885;SDS011;943;51.568;6.998;2022-07-17T00:46:40;6.67;;;1.90;;
1885;SDS011;943;51.568;6.998;2022-07-17T00:49:08;8.17;;;2.10;;
1885;SDS011;943;51.568;6.998;2022-07-17T00:51:36;5.43;;;2.07;;
1885;SDS011;943;51.568;6.998;2022-07-17T00:54:05;7.77;;;3.53;;
1885;SDS011;943;51.568;6.998;2022-07-17T00:56:36;4.23;;;2.00;;
1885;SDS011;943;51.568;6.998;2022-07-17T00:59:06;10.43;;;1.80;;
1885;SDS011;943;51.568;6.998;2022-07-17T01:01:35;6.10;;;2.50;;
1885;SDS011;943;51.568;6.998;2022-07-17T01:04:03;7.57;;;1.93;;
1885;SDS011;943;51.568;6.998;2022-07-17T01:06:31;6.00;;;2.17;;
1885;SDS011;943;51.568;6.998;2022-07-17T01:08:58;4.70;;;2.00;;
1885;SDS011;943;51.568;6.998;2022-07-17T01:11:26;5.30;;;1.90;;
1885;SDS011;943;51.568;6.998;2022-07-17T01:13:55;4.97;;;2.03;;
1885;SDS011;943;51.568;6.998;2022-07-17T01:16:24;5.97;;;2.03;;
1885;SDS011;943;51.568;6.998;2022-07-17T01:18:52;7.80;;;2.20;;
1885;SDS011;943;51.568;6.998;2022-07-17T01:21:20;9.10;;;2.10;;
1885;SDS011;943;51.568;6.998;2022-07-17T01:23:48;5.07;;;2.30;;
1885;SDS011;943;51.568;6.998;2022-07-17T01:26:16;4.27;;;1.70;;
1885;SDS011;943;51.568;6.998;2022-07-17T01:28:44;6.20;;;2.30;;
1885;SDS011;943;51.568;6.998;2022-07-17T01:31:12;4.37;;;2.13;;
1885;SDS011;943;51.568;6.998;2022-07-17T01:33:39;5.13;;;1.90;;
1885;SDS011;943;51.568;6.998;2022-07-17T01:36:08;5.80;;;2.90;;
1885;SDS011;943;51.568;6.998;2022-07-17T01:38:35;4.93;;;1.83;;
1885;SDS011;943;51.568;6.998;2022-07-17T01:41:03;3.97;;;1.77;;
1885;SDS011;943;51.568;6.998;2022-07-17T01:43:31;5.43;;;2.00;;
1885;SDS011;943;51.568;6.998;2022-07-17T01:45:59;6.30;;;2.30;;
1885;SDS011;943;51.568;6.998;2022-07-17T01:48:27;8.13;;;2.37;;
1885;SDS011;943;51.568;6.998;2022-07-17T01:50:58;4.83;;;1.90;;
1885;SDS011;943;51.568;6.998;2022-07-17T01:53:26;3.77;;;2.13;;
1885;SDS011;943;51.568;6.998;2022-07-17T01:55:53;3.90;;;1.57;;
1885;SDS011;943;51.568;6.998;2022-07-17T01:58:22;4.77;;;2.03;;
1885;SDS011;943;51.568;6.998;2022-07-17T02:00:50;4.40;;;2.40;;
1885;SDS011;943;51.568;6.998;2022-07-17T02:03:19;8.77;;;2.20;;
1885;SDS011;943;51.568;6.998;2022-07-17T02:05:49;6.10;;;2.20;;
1885;SDS011;943;51.568;6.998;2022-07-17T02:08:17;4.27;;;1.70;;
1885;SDS011;943;51.568;6.998;2022-07-17T02:10:44;5.27;;;1.67;;
1885;SDS011;943;51.568;6.998;2022-07-17T02:13:12;6.13;;;2.03;;
1885;SDS011;943;51.568;6.998;2022-07-17T02:15:40;5.87;;;1.83;;
1885;SDS011;943;51.568;6.998;2022-07-17T02:18:08;5.73;;;1.90;;
1885;SDS011;943;51.568;6.998;2022-07-17T02:20:36;8.80;;;2.30;;
1885;SDS011;943;51.568;6.998;2022-07-17T02:23:03;8.80;;;2.07;;
1885;SDS011;943;51.568;6.998;2022-07-17T02:25:31;5.83;;;1.60;;
1885;SDS011;943;51.568;6.998;2022-07-17T02:27:58;9.30;;;1.97;;
1885;SDS011;943;51.568;6.998;2022-07-17T02:30:26;7.50;;;2.27;;
1885;SDS011;943;51.568;6.998;2022-07-17T02:32:54;6.20;;;2.10;;
1885;SDS011;943;51.568;6.998;2022-07-17T02:35:21;6.60;;;1.90;;
1885;SDS011;943;51.568;6.998;2022-07-17T02:37:49;6.13;;;1.87;;
1885;SDS011;943;51.568;6.998;2022-07-17T02:40:17;8.53;;;1.70;;
1885;SDS011;943;51.568;6.998;2022-07-17T02:42:44;7.90;;;2.13;;
1885;SDS011;943;51.568;6.998;2022-07-17T02:45:12;6.57;;;2.17;;
1885;SDS011;943;51.568;6.998;2022-07-17T02:47:40;9.13;;;2.33;;
1885;SDS011;943;51.568;6.998;2022-07-17T02:50:09;7.00;;;1.90;;
1885;SDS011;943;51.568;6.998;2022-07-17T02:52:38;7.00;;;2.50;;
1885;SDS011;943;51.568;6.998;2022-07-17T02:55:06;2.93;;;1.40;;
1885;SDS011;943;51.568;6.998;2022-07-17T02:57:35;7.63;;;2.00;;
1885;SDS011;943;51.568;6.998;2022-07-17T03:00:05;7.63;;;2.47;;
1885;SDS011;943;51.568;6.998;2022-07-17T03:02:38;6.23;;;2.30;;
1885;SDS011;943;51.568;6.998;2022-07-17T03:05:06;7.00;;;2.07;;
1885;SDS011;943;51.568;6.998;2022-07-17T03:07:35;6.17;;;1.80;;
1885;SDS011;943;51.568;6.998;2022-07-17T03:10:03;6.60;;;2.00;;
1885;SDS011;943;51.568;6.998;2022-07-17T03:12:32;7.07;;;2.27;;
1885;SDS011;943;51.568;6.998;2022-07-17T03:15:00;4.73;;;2.03;;
1885;SDS011;943;51.568;6.998;2022-07-17T03:17:29;6.10;;;2.03;;
1885;SDS011;943;51.568;6.998;2022-07-17T03:19:57;6.13;;;2.60;;
1885;SDS011;943;51.568;6.998;2022-07-17T03:22:26;4.63;;;1.77;;
1885;SDS011;943;51.568;6.998;2022-07-17T03:24:53;9.33;;;2.37;;
1885;SDS011;943;51.568;6.998;2022-07-17T03:27:21;3.43;;;1.90;;
1885;SDS011;943;51.568;6.998;2022-07-17T03:29:48;5.10;;;2.10;;
1885;SDS011;943;51.568;6.998;2022-07-17T03:32:16;5.10;;;1.97;;
1885;SDS011;943;51.568;6.998;2022-07-17T03:34:44;7.03;;;2.30;;
1885;SDS011;943;51.568;6.998;2022-07-17T03:37:11;6.10;;;2.17;;
1885;SDS011;943;51.568;6.998;2022-07-17T03:39:39;4.70;;;2.40;;
1885;SDS011;943;51.568;6.998;2022-07-17T03:42:07;15.23;;;2.30;;
1885;SDS011;943;51.568;6.998;2022-07-17T03:44:35;5.60;;;2.90;;
1885;SDS011;943;51.568;6.998;2022-07-17T03:47:02;6.93;;;2.70;;
1885;SDS011;943;51.568;6.998;2022-07-17T03:49:30;7.10;;;2.00;;
1885;SDS011;943;51.568;6.998;2022-07-17T03:51:57;4.00;;;1.83;;
1885;SDS011;943;51.568;6.998;2022-07-17T03:54:26;8.43;;;3.60;;
1885;SDS011;943;51.568;6.998;2022-07-17T03:56:53;9.57;;;2.60;;
1885;SDS011;943;51.568;6.998;2022-07-17T03:59:21;6.40;;;1.70;;
1885;SDS011;943;51.568;6.998;2022-07-17T04:01:48;6.37;;;2.20;;
1885;SDS011;943;51.568;6.998;2022-07-17T04:04:16;4.97;;;2.37;;
1885;SDS011;943;51.568;6.998;2022-07-17T04:06:44;9.53;;;2.67;;
1885;SDS011;943;51.568;6.998;2022-07-17T04:09:12;5.43;;;1.73;;
1885;SDS011;943;51.568;6.998;2022-07-17T04:11:40;5.40;;;2.47;;
1885;SDS011;943;51.568;6.998;2022-07-17T04:14:07;5.47;;;2.13;;
1885;SDS011;943;51.568;6.998;2022-07-17T04:16:35;5.67;;;2.30;;
1885;SDS011;943;51.568;6.998;2022-07-17T04:19:03;6.53;;;2.87;;
1885;SDS011;943;51.568;6.998;2022-07-17T04:21:31;6.90;;;2.30;;
1885;SDS011;943;51.568;6.998;2022-07-17T04:24:00;4.93;;;1.93;;
1885;SDS011;943;51.568;6.998;2022-07-17T04:26:28;4.63;;;2.17;;
1885;SDS011;943;51.568;6.998;2022-07-17T04:28:59;5.67;;;2.33;;
1885;SDS011;943;51.568;6.998;2022-07-17T04:31:26;7.10;;;2.47;;
1885;SDS011;943;51.568;6.998;2022-07-17T04:33:55;4.93;;;2.20;;
1885;SDS011;943;51.568;6.998;2022-07-17T04:36:22;6.70;;;2.10;;
1885;SDS011;943;51.568;6.998;2022-07-17T04:38:50;4.47;;;2.23;;
1885;SDS011;943;51.568;6.998;2022-07-17T04:41:17;6.63;;;2.57;;
1885;SDS011;943;51.568;6.998;2022-07-17T04:43:45;6.40;;;2.70;;
1885;SDS011;943;51.568;6.998;2022-07-17T04:46:12;3.30;;;2.10;;
1885;SDS011;943;51.568;6.998;2022-07-17T04:48:43;6.90;;;2.17;;
1885;SDS011;943;51.568;6.998;2022-07-17T04:51:11;5.40;;;1.83;;
1885;SDS011;943;51.568;6.998;2022-07-17T04:53:39;9.03;;;2.40;;
1885;SDS011;943;51.568;6.998;2022-07-17T04:56:07;8.10;;;3.70;;
1885;SDS011;943;51.568;6.998;2022-07-17T04:58:35;6.97;;;2.73;;
1885;SDS011;943;51.568;6.998;2022-07-17T05:01:03;5.97;;;2.60;;
1885;SDS011;943;51.568;6.998;2022-07-17T05:03:31;4.93;;;1.90;;
1885;SDS011;943;51.568;6.998;2022-07-17T05:05:59;6.30;;;3.30;;
1885;SDS011;943;51.568;6.998;2022-07-17T05:08:26;5.60;;;2.60;;
1885;SDS011;943;51.568;6.998;2022-07-17T05:10:54;5.57;;;2.83;;
1885;SDS011;943;51.568;6.998;2022-07-17T05:13:23;6.60;;;2.40;;
1885;SDS011;943;51.568;6.998;2022-07-17T05:15:51;10.20;;;2.17;;
1885;SDS011;943;51.568;6.998;2022-07-17T05:18:19;9.50;;;2.60;;
1885;SDS011;943;51.568;6.998;2022-07-17T05:20:47;7.50;;;2.50;;
1885;SDS011;943;51.568;6.998;2022-07-17T05:23:14;6.90;;;3.00;;
1885;SDS011;943;51.568;6.998;2022-07-17T05:25:42;11.27;;;3.00;;
1885;SDS011;943;51.568;6.998;2022-07-17T05:28:10;6.43;;;2.70;;
1885;SDS011;943;51.568;6.998;2022-07-17T05:30:37;6.73;;;3.10;;
1885;SDS011;943;51.568;6.998;2022-07-17T05:33:05;9.67;;;3.60;;
1885;SDS011;943;51.568;6.998;2022-07-17T05:35:33;8.47;;;3.00;;
1885;SDS011;943;51.568;6.998;2022-07-17T05:38:01;4.60;;;2.93;;
1885;SDS011;943;51.568;6.998;2022-07-17T05:40:29;7.33;;;3.33;;
1885;SDS011;943;51.568;6.998;2022-07-17T05:42:57;4.47;;;2.83;;
1885;SDS011;943;51.568;6.998;2022-07-17T05:45:35;8.27;;;3.27;;
1885;SDS011;943;51.568;6.998;2022-07-17T05:48:09;6.10;;;2.87;;
1885;SDS011;943;51.568;6.998;2022-07-17T05:50:37;6.10;;;2.60;;
1885;SDS011;943;51.568;6.998;2022-07-17T05:53:05;6.10;;;3.33;;
1885;SDS011;943;51.568;6.998;2022-07-17T05:55:34;4.93;;;2.50;;
1885;SDS011;943;51.568;6.998;2022-07-17T05:58:10;6.63;;;2.50;;
1885;SDS011;943;51.568;6.998;2022-07-17T06:00:38;4.67;;;2.43;;
1885;SDS011;943;51.568;6.998;2022-07-17T06:03:06;5.70;;;2.70;;
1885;SDS011;943;51.568;6.998;2022-07-17T06:05:36;6.27;;;2.20;;
1885;SDS011;943;51.568;6.998;2022-07-17T06:08:07;6.77;;;2.57;;
1885;SDS011;943;51.568;6.998;2022-07-17T06:10:35;7.20;;;2.67;;
1885;SDS011;943;51.568;6.998;2022-07-17T06:13:05;9.30;;;2.43;;
1885;SDS011;943;51.568;6.998;2022-07-17T06:15:34;4.53;;;2.20;;
1885;SDS011;943;51.568;6.998;2022-07-17T06:18:02;7.23;;;2.30;;
1885;SDS011;943;51.568;6.998;2022-07-17T06:20:30;6.50;;;2.20;;
1885;SDS011;943;51.568;6.998;2022-07-17T06:23:00;6.23;;;2.33;;
1885;SDS011;943;51.568;6.998;2022-07-17T06:25:29;4.97;;;1.90;;
1885;SDS011;943;51.568;6.998;2022-07-17T06:27:56;4.77;;;2.00;;
1885;SDS011;943;51.568;6.998;2022-07-17T06:30:24;5.43;;;2.13;;
1885;SDS011;943;51.568;6.998;2022-07-17T06:32:51;4.00;;;1.50;;
1885;SDS011;943;51.568;6.998;2022-07-17T06:35:19;4.27;;;2.17;;
1885;SDS011;943;51.568;6.998;2022-07-17T06:37:47;4.07;;;2.30;;
1885;SDS011;943;51.568;6.998;2022-07-17T06:40:14;11.20;;;2.10;;
1885;SDS011;943;51.568;6.998;2022-07-17T06:42:42;5.07;;;2.03;;
1885;SDS011;943;51.568;6.998;2022-07-17T06:45:09;5.17;;;2.07;;
1885;SDS011;943;51.568;6.998;2022-07-17T06:47:37;6.67;;;1.90;;
1885;SDS011;943;51.568;6.998;2022-07-17T06:50:05;5.13;;;2.00;;
1885;SDS011;943;51.568;6.998;2022-07-17T06:52:34;10.27;;;1.93;;
1885;SDS011;943;51.568;6.998;2022-07-17T06:55:06;4.17;;;1.87;;
1885;SDS011;943;51.568;6.998;2022-07-17T06:57:35;6.87;;;2.00;;
1885;SDS011;943;51.568;6.998;2022-07-17T07:00:03;5.63;;;2.20;;
1885;SDS011;943;51.568;6.998;2022-07-17T07:02:32;5.33;;;2.27;;
1885;SDS011;943;51.568;6.998;2022-07-17T07:04:59;6.07;;;2.30;;
1885;SDS011;943;51.568;6.998;2022-07-17T07:07:27;4.90;;;1.83;;
1885;SDS011;943;51.568;6.998;2022-07-17T07:09:55;5.90;;;2.10;;
1885;SDS011;943;51.568;6.998;2022-07-17T07:12:22;11.80;;;1.80;;
1885;SDS011;943;51.568;6.998;2022-07-17T07:14:50;6.77;;;1.80;;
1885;SDS011;943;51.568;6.998;2022-07-17T07:17:21;5.70;;;1.70;;
1885;SDS011;943;51.568;6.998;2022-07-17T07:19:48;5.30;;;2.10;;
1885;SDS011;943;51.568;6.998;2022-07-17T07:22:16;5.90;;;2.00;;
1885;SDS011;943;51.568;6.998;2022-07-17T07:24:45;5.00;;;2.13;;
1885;SDS011;943;51.568;6.998;2022-07-17T07:27:12;4.77;;;1.50;;
1885;SDS011;943;51.568;6.998;2022-07-17T07:29:40;7.70;;;2.03;;
1885;SDS011;943;51.568;6.998;2022-07-17T07:32:08;4.67;;;1.63;;
1885;SDS011;943;51.568;6.998;2022-07-17T07:34:35;7.10;;;1.80;;
1885;SDS011;943;51.568;6.998;2022-07-17T07:37:03;5.97;;;2.33;;
1885;SDS011;943;51.568;6.998;2022-07-17T07:39:31;4.43;;;1.67;;
1885;SDS011;943;51.568;6.998;2022-07-17T07:41:59;5.05;;;1.60;;
1885;SDS011;943;51.568;6.998;2022-07-17T07:44:27;5.35;;;2.03;;
1885;SDS011;943;51.568;6.998;2022-07-17T07:46:57;5.47;;;1.90;;
1885;SDS011;943;51.568;6.998;2022-07-17T07:49:25;5.50;;;1.50;;
1885;SDS011;943;51.568;6.998;2022-07-17T07:51:54;6.90;;;2.00;;
1885;SDS011;943;51.568;6.998;2022-07-17T07:54:28;5.03;;;1.90;;
1885;SDS011;943;51.568;6.998;2022-07-17T07:56:57;6.40;;;2.10;;
1885;SDS011;943;51.568;6.998;2022-07-17T07:59:26;6.78;;;2.08;;
1885;SDS011;943;51.568;6.998;2022-07-17T08:01:59;3.90;;;1.58;;
1885;SDS011;943;51.568;6.998;2022-07-17T08:04:28;7.18;;;1.75;;
1885;SDS011;943;51.568;6.998;2022-07-17T08:06:56;5.30;;;1.77;;
1885;SDS011;943;51.568;6.998;2022-07-17T08:09:24;3.30;;;1.43;;
1885;SDS011;943;51.568;6.998;2022-07-17T08:11:51;5.23;;;1.80;;
1885;SDS011;943;51.568;6.998;2022-07-17T08:14:19;5.17;;;2.10;;
1885;SDS011;943;51.568;6.998;2022-07-17T08:16:47;7.30;;;1.87;;
1885;SDS011;943;51.568;6.998;2022-07-17T08:19:15;5.90;;;1.70;;
1885;SDS011;943;51.568;6.998;2022-07-17T08:21:42;3.90;;;1.27;;
1885;SDS011;943;51.568;6.998;2022-07-17T08:24:10;3.30;;;1.67;;
1885;SDS011;943;51.568;6.998;2022-07-17T08:26:37;3.53;;;1.73;;
1885;SDS011;943;51.568;6.998;2022-07-17T08:29:05;8.37;;;2.03;;
1885;SDS011;943;51.568;6.998;2022-07-17T08:31:33;5.72;;;1.83;;
1885;SDS011;943;51.568;6.998;2022-07-17T08:34:01;5.38;;;1.63;;
1885;SDS011;943;51.568;6.998;2022-07-17T08:36:29;6.00;;;1.50;;
1885;SDS011;943;51.568;6.998;2022-07-17T08:38:57;5.50;;;1.60;;
1885;SDS011;943;51.568;6.998;2022-07-17T08:41:25;5.40;;;1.90;;
1885;SDS011;943;51.568;6.998;2022-07-17T08:43:56;3.33;;;1.30;;
1885;SDS011;943;51.568;6.998;2022-07-17T08:46:24;4.53;;;1.40;;
1885;SDS011;943;51.568;6.998;2022-07-17T08:48:56;4.70;;;2.00;;
1885;SDS011;943;51.568;6.998;2022-07-17T08:51:26;9.03;;;2.20;;
1885;SDS011;943;51.568;6.998;2022-07-17T08:53:55;5.73;;;1.80;;
1885;SDS011;943;51.568;6.998;2022-07-17T08:56:25;5.03;;;1.67;;
1885;SDS011;943;51.568;6.998;2022-07-17T08:58:55;6.73;;;2.40;;
1885;SDS011;943;51.568;6.998;2022-07-17T09:01:23;6.37;;;2.50;;
1885;SDS011;943;51.568;6.998;2022-07-17T09:03:58;5.37;;;1.90;;
1885;SDS011;943;51.568;6.998;2022-07-17T09:06:36;6.60;;;2.23;;
1885;SDS011;943;51.568;6.998;2022-07-17T09:09:05;3.93;;;1.77;;
1885;SDS011;943;51.568;6.998;2022-07-17T09:11:43;7.40;;;1.53;;
1885;SDS011;943;51.568;6.998;2022-07-17T09:14:21;5.20;;;2.07;;
1885;SDS011;943;51.568;6.998;2022-07-17T09:16:50;4.63;;;1.63;;
1885;SDS011;943;51.568;6.998;2022-07-17T09:19:34;7.43;;;2.23;;
1885;SDS011;943;51.568;6.998;2022-07-17T09:22:09;5.93;;;1.63;;
1885;SDS011;943;51.568;6.998;2022-07-17T09:24:52;4.47;;;2.17;;
1885;SDS011;943;51.568;6.998;2022-07-17T09:30:01;10.43;;;1.80;;
1885;SDS011;943;51.568;6.998;2022-07-17T09:32:38;4.87;;;1.90;;
1885;SDS011;943;51.568;6.998;2022-07-17T09:35:09;5.67;;;2.10;;
1885;SDS011;943;51.568;6.998;2022-07-17T09:37:38;2.20;;;1.30;;
1885;SDS011;943;51.568;6.998;2022-07-17T09:40:09;3.90;;;1.57;;
1885;SDS011;943;51.568;6.998;2022-07-17T09:42:59;4.13;;;2.03;;
1885;SDS011;943;51.568;6.998;2022-07-17T09:45:27;3.50;;;1.93;;
1885;SDS011;943;51.568;6.998;2022-07-17T09:47:55;4.20;;;1.90;;
1885;SDS011;943;51.568;6.998;2022-07-17T09:50:24;5.53;;;1.70;;
1885;SDS011;943;51.568;6.998;2022-07-17T09:52:56;4.60;;;1.53;;
1885;SDS011;943;51.568;6.998;2022-07-17T09:55:27;6.53;;;1.77;;
1885;SDS011;943;51.568;6.998;2022-07-17T09:58:13;4.20;;;1.67;;
1885;SDS011;943;51.568;6.998;2022-07-17T10:00:50;5.70;;;1.40;;
1885;SDS011;943;51.568;6.998;2022-07-17T10:03:18;3.60;;;1.70;;
1885;SDS011;943;51.568;6.998;2022-07-17T10:05:47;3.20;;;1.70;;
1885;SDS011;943;51.568;6.998;2022-07-17T10:08:14;3.13;;;1.63;;
1885;SDS011;943;51.568;6.998;2022-07-17T10:10:42;6.70;;;2.53;;
1885;SDS011;943;51.568;6.998;2022-07-17T10:13:11;3.40;;;1.57;;
1885;SDS011;943;51.568;6.998;2022-07-17T10:15:42;6.67;;;2.40;;
1885;SDS011;943;51.568;6.998;2022-07-17T10:18:10;5.70;;;1.90;;
1885;SDS011;943;51.568;6.998;2022-07-17T10:20:38;3.53;;;1.73;;
1885;SDS011;943;51.568;6.998;2022-07-17T10:23:13;6.57;;;1.70;;
1885;SDS011;943;51.568;6.998;2022-07-17T10:25:41;6.10;;;2.40;;
1885;SDS011;943;51.568;6.998;2022-07-17T10:28:09;3.47;;;1.60;;
1885;SDS011;943;51.568;6.998;2022-07-17T10:30:40;4.47;;;1.70;;
1885;SDS011;943;51.568;6.998;2022-07-17T10:33:15;6.10;;;2.03;;
1885;SDS011;943;51.568;6.998;2022-07-17T10:35:47;3.27;;;1.50;;
1885;SDS011;943;51.568;6.998;2022-07-17T10:38:15;8.90;;;2.00;;
1885;SDS011;943;51.568;6.998;2022-07-17T10:40:43;4.37;;;1.70;;
1885;SDS011;943;51.568;6.998;2022-07-17T10:43:11;4.80;;;1.50;;
1885;SDS011;943;51.568;6.998;2022-07-17T10:45:40;5.63;;;2.20;;
1885;SDS011;943;51.568;6.998;2022-07-17T10:50:47;4.60;;;1.70;;
1885;SDS011;943;51.568;6.998;2022-07-17T10:53:23;7.13;;;2.03;;
1885;SDS011;943;51.568;6.998;2022-07-17T10:56:00;4.23;;;1.70;;
1885;SDS011;943;51.568;6.998;2022-07-17T10:58:36;6.60;;;1.93;;
1885;SDS011;943;51.568;6.998;2022-07-17T11:01:20;4.10;;;1.80;;
1885;SDS011;943;51.568;6.998;2022-07-17T11:03:50;5.30;;;1.73;;
1885;SDS011;943;51.568;6.998;2022-07-17T11:09:07;3.07;;;1.57;;
1885;SDS011;943;51.568;6.998;2022-07-17T11:11:42;5.43;;;1.67;;
1885;SDS011;943;51.568;6.998;2022-07-17T11:14:18;4.53;;;2.07;;
1885;SDS011;943;51.568;6.998;2022-07-17T11:16:54;4.50;;;1.90;;
1885;SDS011;943;51.568;6.998;2022-07-17T11:19:27;7.70;;;1.97;;
1885;SDS011;943;51.568;6.998;2022-07-17T11:22:01;6.90;;;1.70;;
1885;SDS011;943;51.568;6.998;2022-07-17T11:24:36;5.13;;;1.60;;
1885;SDS011;943;51.568;6.998;2022-07-17T11:27:21;4.03;;;1.70;;
1885;SDS011;943;51.568;6.998;2022-07-17T11:29:58;5.70;;;1.37;;
1885;SDS011;943;51.568;6.998;2022-07-17T11:32:37;5.70;;;1.63;;
1885;SDS011;943;51.568;6.998;2022-07-17T11:35:16;3.57;;;1.30;;
1885;SDS011;943;51.568;6.998;2022-07-17T11:38:08;3.63;;;2.03;;
1885;SDS011;943;51.568;6.998;2022-07-17T11:40:44;5.33;;;1.30;;
1885;SDS011;943;51.568;6.998;2022-07-17T11:43:16;4.00;;;1.67;;
1885;SDS011;943;51.568;6.998;2022-07-17T11:45:45;4.17;;;1.40;;
1885;SDS011;943;51.568;6.998;2022-07-17T11:48:13;3.37;;;1.77;;
1885;SDS011;943;51.568;6.998;2022-07-17T11:50:51;3.43;;;1.50;;
1885;SDS011;943;51.568;6.998;2022-07-17T11:53:43;3.60;;;1.30;;
1885;SDS011;943;51.568;6.998;2022-07-17T11:56:20;3.20;;;1.30;;
1885;SDS011;943;51.568;6.998;2022-07-17T11:58:48;3.50;;;1.17;;
1885;SDS011;943;51.568;6.998;2022-07-17T12:01:20;3.97;;;1.00;;
1885;SDS011;943;51.568;6.998;2022-07-17T12:03:57;3.20;;;1.10;;
1885;SDS011;943;51.568;6.998;2022-07-17T12:06:26;6.67;;;1.90;;
1885;SDS011;943;51.568;6.998;2022-07-17T12:08:54;5.17;;;1.90;;
1885;SDS011;943;51.568;6.998;2022-07-17T12:11:22;4.13;;;1.40;;
1885;SDS011;943;51.568;6.998;2022-07-17T12:13:49;7.20;;;1.50;;
1885;SDS011;943;51.568;6.998;2022-07-17T12:16:28;3.13;;;1.17;;
1885;SDS011;943;51.568;6.998;2022-07-17T12:19:13;2.63;;;1.30;;
1885;SDS011;943;51.568;6.998;2022-07-17T12:21:56;3.27;;;1.27;;
1885;SDS011;943;51.568;6.998;2022-07-17T12:24:35;3.37;;;1.30;;
1885;SDS011;943;51.568;6.998;2022-07-17T12:27:12;3.70;;;1.40;;
1885;SDS011;943;51.568;6.998;2022-07-17T12:29:44;3.97;;;1.47;;
1885;SDS011;943;51.568;6.998;2022-07-17T12:32:15;4.07;;;1.20;;
1885;SDS011;943;51.568;6.998;2022-07-17T12:34:47;3.57;;;1.20;;
1885;SDS011;943;51.568;6.998;2022-07-17T12:37:16;4.77;;;1.30;;
1885;SDS011;943;51.568;6.998;2022-07-17T12:39:48;4.60;;;1.80;;
1885;SDS011;943;51.568;6.998;2022-07-17T12:42:17;3.80;;;1.93;;
1885;SDS011;943;51.568;6.998;2022-07-17T12:44:45;4.40;;;1.30;;
1885;SDS011;943;51.568;6.998;2022-07-17T12:47:12;2.13;;;1.10;;
1885;SDS011;943;51.568;6.998;2022-07-17T12:49:40;4.23;;;1.63;;
1885;SDS011;943;51.568;6.998;2022-07-17T12:52:07;4.40;;;1.30;;
1885;SDS011;943;51.568;6.998;2022-07-17T12:54:35;2.93;;;1.43;;
1885;SDS011;943;51.568;6.998;2022-07-17T12:57:04;3.63;;;1.30;;
1885;SDS011;943;51.568;6.998;2022-07-17T12:59:33;4.47;;;1.23;;
1885;SDS011;943;51.568;6.998;2022-07-17T13:02:00;3.30;;;1.37;;
1885;SDS011;943;51.568;6.998;2022-07-17T13:04:28;5.50;;;1.53;;
1885;SDS011;943;51.568;6.998;2022-07-17T13:06:56;2.63;;;1.20;;
1885;SDS011;943;51.568;6.998;2022-07-17T13:09:24;2.20;;;1.13;;
1885;SDS011;943;51.568;6.998;2022-07-17T13:11:52;3.53;;;1.50;;
1885;SDS011;943;51.568;6.998;2022-07-17T13:14:19;2.40;;;1.10;;
1885;SDS011;943;51.568;6.998;2022-07-17T13:16:48;3.50;;;1.17;;
1885;SDS011;943;51.568;6.998;2022-07-17T13:19:15;3.20;;;1.43;;
1885;SDS011;943;51.568;6.998;2022-07-17T13:21:44;4.50;;;1.30;;
1885;SDS011;943;51.568;6.998;2022-07-17T13:24:11;5.30;;;1.50;;
1885;SDS011;943;51.568;6.998;2022-07-17T13:26:39;3.87;;;1.57;;
1885;SDS011;943;51.568;6.998;2022-07-17T13:29:07;3.73;;;1.40;;
1885;SDS011;943;51.568;6.998;2022-07-17T13:31:34;3.07;;;1.40;;
1885;SDS011;943;51.568;6.998;2022-07-17T13:34:02;3.10;;;1.07;;
1885;SDS011;943;51.568;6.998;2022-07-17T13:36:30;3.57;;;1.17;;
1885;SDS011;943;51.568;6.998;2022-07-17T13:38:58;9.27;;;1.80;;
1885;SDS011;943;51.568;6.998;2022-07-17T13:41:25;3.20;;;1.00;;
1885;SDS011;943;51.568;6.998;2022-07-17T13:43:53;5.60;;;1.70;;
1885;SDS011;943;51.568;6.998;2022-07-17T13:46:20;4.23;;;1.53;;
1885;SDS011;943;51.568;6.998;2022-07-17T13:48:48;3.20;;;1.40;;
1885;SDS011;943;51.568;6.998;2022-07-17T13:51:16;4.97;;;1.57;;
1885;SDS011;943;51.568;6.998;2022-07-17T13:53:43;5.17;;;1.30;;
1885;SDS011;943;51.568;6.998;2022-07-17T13:56:11;2.90;;;1.00;;
1885;SDS011;943;51.568;6.998;2022-07-17T13:58:40;7.00;;;1.90;;
1885;SDS011;943;51.568;6.998;2022-07-17T14:01:07;5.23;;;1.23;;
1885;SDS011;943;51.568;6.998;2022-07-17T14:03:35;2.80;;;1.00;;
1885;SDS011;943;51.568;6.998;2022-07-17T14:06:03;6.23;;;1.33;;
1885;SDS011;943;51.568;6.998;2022-07-17T14:08:31;2.10;;;1.30;;
1885;SDS011;943;51.568;6.998;2022-07-17T14:10:59;4.67;;;1.33;;
1885;SDS011;943;51.568;6.998;2022-07-17T14:13:28;3.60;;;1.47;;
1885;SDS011;943;51.568;6.998;2022-07-17T14:16:01;3.90;;;1.20;;
1885;SDS011;943;51.568;6.998;2022-07-17T14:18:31;5.60;;;1.47;;
1885;SDS011;943;51.568;6.998;2022-07-17T14:20:59;4.63;;;1.50;;
1885;SDS011;943;51.568;6.998;2022-07-17T14:23:27;4.00;;;1.30;;
1885;SDS011;943;51.568;6.998;2022-07-17T14:25:54;4.87;;;1.50;;
1885;SDS011;943;51.568;6.998;2022-07-17T14:28:23;5.17;;;1.03;;
1885;SDS011;943;51.568;6.998;2022-07-17T14:30:50;2.33;;;1.23;;
1885;SDS011;943;51.568;6.998;2022-07-17T14:33:18;3.70;;;1.20;;
1885;SDS011;943;51.568;6.998;2022-07-17T14:35:45;6.43;;;1.50;;
1885;SDS011;943;51.568;6.998;2022-07-17T14:38:13;2.77;;;1.00;;
1885;SDS011;943;51.568;6.998;2022-07-17T14:40:40;2.70;;;1.10;;
1885;SDS011;943;51.568;6.998;2022-07-17T14:43:08;3.60;;;1.37;;
1885;SDS011;943;51.568;6.998;2022-07-17T14:45:35;6.50;;;1.70;;
1885;SDS011;943;51.568;6.998;2022-07-17T14:48:03;2.67;;;1.23;;
1885;SDS011;943;51.568;6.998;2022-07-17T14:50:31;4.07;;;1.40;;
1885;SDS011;943;51.568;6.998;2022-07-17T14:52:59;3.77;;;1.40;;
1885;SDS011;943;51.568;6.998;2022-07-17T14:55:26;2.93;;;1.40;;
1885;SDS011;943;51.568;6.998;2022-07-17T14:57:54;1.97;;;1.10;;
1885;SDS011;943;51.568;6.998;2022-07-17T15:00:21;4.00;;;1.60;;
1885;SDS011;943;51.568;6.998;2022-07-17T15:02:49;5.40;;;1.40;;
1885;SDS011;943;51.568;6.998;2022-07-17T15:05:16;7.77;;;1.30;;
1885;SDS011;943;51.568;6.998;2022-07-17T15:07:44;3.57;;;1.50;;
1885;SDS011;943;51.568;6.998;2022-07-17T15:10:12;3.30;;;1.27;;
1885;SDS011;943;51.568;6.998;2022-07-17T15:12:39;2.50;;;1.33;;
1885;SDS011;943;51.568;6.998;2022-07-17T15:15:07;3.93;;;1.87;;
1885;SDS011;943;51.568;6.998;2022-07-17T15:17:36;3.63;;;1.50;;
1885;SDS011;943;51.568;6.998;2022-07-17T15:20:04;6.70;;;1.30;;
1885;SDS011;943;51.568;6.998;2022-07-17T15:22:33;3.30;;;1.30;;
1885;SDS011;943;51.568;6.998;2022-07-17T15:25:00;4.17;;;1.60;;
1885;SDS011;943;51.568;6.998;2022-07-17T15:27:29;3.00;;;1.40;;
1885;SDS011;943;51.568;6.998;2022-07-17T15:29:57;4.10;;;1.40;;
1885;SDS011;943;51.568;6.998;2022-07-17T15:32:25;2.67;;;1.47;;
1885;SDS011;943;51.568;6.998;2022-07-17T15:34:52;5.13;;;1.80;;
1885;SDS011;943;51.568;6.998;2022-07-17T15:37:20;2.37;;;1.07;;
1885;SDS011;943;51.568;6.998;2022-07-17T15:39:50;4.37;;;1.57;;
1885;SDS011;943;51.568;6.998;2022-07-17T15:42:18;4.93;;;1.30;;
1885;SDS011;943;51.568;6.998;2022-07-17T15:44:47;4.60;;;1.07;;
1885;SDS011;943;51.568;6.998;2022-07-17T15:47:14;3.10;;;1.20;;
1885;SDS011;943;51.568;6.998;2022-07-17T15:49:42;3.20;;;1.10;;
1885;SDS011;943;51.568;6.998;2022-07-17T15:52:10;2.97;;;1.27;;